sensor_id;sensor_type;location;lat;lon;timestamp;P1;durP1;ratioP1;P2;durP2;ratioP2
51949;SDS011;37974;53.218;6.640;2023-03-24T00:01:21;15.13;;;4.78;;
51949;SDS011;37974;53.218;6.640;2023-03-24T00:03:50;16.77;;;5.32;;
51949;SDS011;37974;53.218;6.640;2023-03-24T00:06:19;12.55;;;5.00;;
51949;SDS011;37974;53.218;6.640;2023-03-24T00:08:49;14.35;;;4.72;;
51949;SDS011;37974;53.218;6.640;2023-03-24T00:11:15;13.27;;;5.45;;
51949;SDS011;37974;53.218;6.640;2023-03-24T00:13:51;12.55;;;4.70;;
51949;SDS011;37974;53.218;6.640;2023-03-24T00:16:18;15.60;;;4.97;;
51949;SDS011;37974;53.218;6.640;2023-03-24T00:18:51;15.57;;;4.95;;
51949;SDS011;37974;53.218;6.640;2023-03-24T00:21:36;13.05;;;4.72;;
51949;SDS011;37974;53.218;6.640;2023-03-24T00:24:02;13.82;;;5.22;;
51949;SDS011;37974;53.218;6.640;2023-03-24T00:26:32;15.05;;;5.50;;
51949;SDS011;37974;53.218;6.640;2023-03-24T00:29:01;14.65;;;6.10;;
51949;SDS011;37974;53.218;6.640;2023-03-24T00:31:32;12.55;;;4.78;;
51949;SDS011;37974;53.218;6.640;2023-03-24T00:34:05;12.88;;;5.18;;
51949;SDS011;37974;53.218;6.640;2023-03-24T00:36:33;13.73;;;5.38;;
51949;SDS011;37974;53.218;6.640;2023-03-24T00:38:59;14.38;;;4.88;;
51949;SDS011;37974;53.218;6.640;2023-03-24T00:41:25;11.30;;;4.75;;
51949;SDS011;37974;53.218;6.640;2023-03-24T00:43:57;13.35;;;4.53;;
51949;SDS011;37974;53.218;6.640;2023-03-24T00:46:24;12.10;;;4.90;;
51949;SDS011;37974;53.218;6.640;2023-03-24T00:49:00;11.60;;;4.60;;
51949;SDS011;37974;53.218;6.640;2023-03-24T00:51:35;13.70;;;5.05;;
51949;SDS011;37974;53.218;6.640;2023-03-24T00:54:03;10.80;;;5.00;;
51949;SDS011;37974;53.218;6.640;2023-03-24T00:56:31;7.85;;;4.60;;
51949;SDS011;37974;53.218;6.640;2023-03-24T00:58:57;13.93;;;4.78;;
51949;SDS011;37974;53.218;6.640;2023-03-24T01:01:32;12.52;;;4.85;;
51949;SDS011;37974;53.218;6.640;2023-03-24T01:04:09;11.38;;;4.45;;
51949;SDS011;37974;53.218;6.640;2023-03-24T01:06:37;10.73;;;4.88;;
51949;SDS011;37974;53.218;6.640;2023-03-24T01:09:06;14.13;;;5.05;;
51949;SDS011;37974;53.218;6.640;2023-03-24T01:11:47;11.45;;;5.05;;
51949;SDS011;37974;53.218;6.640;2023-03-24T01:14:13;11.40;;;4.30;;
51949;SDS011;37974;53.218;6.640;2023-03-24T01:16:39;10.02;;;4.25;;
51949;SDS011;37974;53.218;6.640;2023-03-24T01:19:06;12.27;;;4.75;;
51949;SDS011;37974;53.218;6.640;2023-03-24T01:21:33;13.68;;;4.60;;
51949;SDS011;37974;53.218;6.640;2023-03-24T01:24:01;11.85;;;4.60;;
51949;SDS011;37974;53.218;6.640;2023-03-24T01:26:27;11.98;;;4.88;;
51949;SDS011;37974;53.218;6.640;2023-03-24T01:28:56;11.25;;;4.18;;
51949;SDS011;37974;53.218;6.640;2023-03-24T01:31:22;14.45;;;4.20;;
51949;SDS011;37974;53.218;6.640;2023-03-24T01:33:47;13.00;;;4.75;;
51949;SDS011;37974;53.218;6.640;2023-03-24T01:36:16;11.68;;;3.90;;
51949;SDS011;37974;53.218;6.640;2023-03-24T01:38:42;10.75;;;4.50;;
51949;SDS011;37974;53.218;6.640;2023-03-24T01:41:17;8.32;;;4.47;;
51949;SDS011;37974;53.218;6.640;2023-03-24T01:43:43;10.90;;;4.78;;
51949;SDS011;37974;53.218;6.640;2023-03-24T01:46:18;9.80;;;4.22;;
51949;SDS011;37974;53.218;6.640;2023-03-24T01:48:53;11.07;;;4.40;;
51949;SDS011;37974;53.218;6.640;2023-03-24T01:51:24;8.27;;;3.95;;
51949;SDS011;37974;53.218;6.640;2023-03-24T01:53:56;9.23;;;3.72;;
51949;SDS011;37974;53.218;6.640;2023-03-24T01:56:30;9.88;;;4.13;;
51949;SDS011;37974;53.218;6.640;2023-03-24T01:59:07;8.85;;;4.18;;
51949;SDS011;37974;53.218;6.640;2023-03-24T02:04:12;8.65;;;3.97;;
51949;SDS011;37974;53.218;6.640;2023-03-24T02:06:41;8.32;;;3.92;;
51949;SDS011;37974;53.218;6.640;2023-03-24T02:09:17;10.18;;;3.75;;
51949;SDS011;37974;53.218;6.640;2023-03-24T02:11:48;8.77;;;3.35;;
51949;SDS011;37974;53.218;6.640;2023-03-24T02:14:21;7.63;;;3.80;;
51949;SDS011;37974;53.218;6.640;2023-03-24T02:16:53;9.88;;;3.72;;
51949;SDS011;37974;53.218;6.640;2023-03-24T02:27:55;7.85;;;3.63;;
51949;SDS011;37974;53.218;6.640;2023-03-24T02:30:59;7.30;;;3.97;;
51949;SDS011;37974;53.218;6.640;2023-03-24T02:44:29;9.55;;;3.75;;
51949;SDS011;37974;53.218;6.640;2023-03-24T02:49:29;9.32;;;3.70;;
51949;SDS011;37974;53.218;6.640;2023-03-24T02:52:03;11.15;;;3.95;;
51949;SDS011;37974;53.218;6.640;2023-03-24T02:54:41;9.30;;;3.97;;
51949;SDS011;37974;53.218;6.640;2023-03-24T02:59:58;11.85;;;4.63;;
51949;SDS011;37974;53.218;6.640;2023-03-24T03:02:29;8.60;;;4.10;;
51949;SDS011;37974;53.218;6.640;2023-03-24T03:05:07;7.30;;;4.10;;
51949;SDS011;37974;53.218;6.640;2023-03-24T03:07:38;9.13;;;4.18;;
51949;SDS011;37974;53.218;6.640;2023-03-24T03:10:06;9.35;;;4.63;;
51949;SDS011;37974;53.218;6.640;2023-03-24T03:12:39;8.75;;;4.20;;
51949;SDS011;37974;53.218;6.640;2023-03-24T03:15:10;10.10;;;4.32;;
51949;SDS011;37974;53.218;6.640;2023-03-24T03:17:40;12.10;;;4.00;;
51949;SDS011;37974;53.218;6.640;2023-03-24T03:20:17;8.13;;;4.22;;
51949;SDS011;37974;53.218;6.640;2023-03-24T03:22:48;7.57;;;3.50;;
51949;SDS011;37974;53.218;6.640;2023-03-24T03:25:21;9.88;;;3.70;;
51949;SDS011;37974;53.218;6.640;2023-03-24T03:27:52;7.93;;;3.40;;
51949;SDS011;37974;53.218;6.640;2023-03-24T03:30:30;5.65;;;2.70;;
51949;SDS011;37974;53.218;6.640;2023-03-24T03:33:09;6.00;;;2.90;;
51949;SDS011;37974;53.218;6.640;2023-03-24T03:35:55;6.32;;;3.40;;
51949;SDS011;37974;53.218;6.640;2023-03-24T03:38:38;8.60;;;3.22;;
51949;SDS011;37974;53.218;6.640;2023-03-24T03:41:22;2.70;;;1.50;;
51949;SDS011;37974;53.218;6.640;2023-03-24T03:43:48;4.57;;;1.80;;
51949;SDS011;37974;53.218;6.640;2023-03-24T03:46:14;4.60;;;1.52;;
51949;SDS011;37974;53.218;6.640;2023-03-24T03:48:41;7.70;;;2.00;;
51949;SDS011;37974;53.218;6.640;2023-03-24T03:51:09;6.10;;;1.80;;
51949;SDS011;37974;53.218;6.640;2023-03-24T03:53:41;4.20;;;1.98;;
51949;SDS011;37974;53.218;6.640;2023-03-24T03:56:12;4.45;;;1.80;;
51949;SDS011;37974;53.218;6.640;2023-03-24T03:58:42;7.88;;;2.08;;
51949;SDS011;37974;53.218;6.640;2023-03-24T04:01:11;6.60;;;1.90;;
51949;SDS011;37974;53.218;6.640;2023-03-24T04:03:46;5.20;;;1.70;;
51949;SDS011;37974;53.218;6.640;2023-03-24T04:12:09;6.25;;;1.50;;
51949;SDS011;37974;53.218;6.640;2023-03-24T04:14:40;7.13;;;1.65;;
51949;SDS011;37974;53.218;6.640;2023-03-24T04:17:23;7.78;;;1.83;;
51949;SDS011;37974;53.218;6.640;2023-03-24T04:20:11;7.68;;;1.70;;
51949;SDS011;37974;53.218;6.640;2023-03-24T04:22:55;12.55;;;1.55;;
51949;SDS011;37974;53.218;6.640;2023-03-24T04:25:32;8.02;;;1.30;;
51949;SDS011;37974;53.218;6.640;2023-03-24T04:35:52;7.88;;;1.70;;
51949;SDS011;37974;53.218;6.640;2023-03-24T04:38:25;6.75;;;1.75;;
51949;SDS011;37974;53.218;6.640;2023-03-24T04:40:52;7.50;;;1.60;;
51949;SDS011;37974;53.218;6.640;2023-03-24T04:43:21;7.07;;;1.50;;
51949;SDS011;37974;53.218;6.640;2023-03-24T04:45:52;11.40;;;1.55;;
51949;SDS011;37974;53.218;6.640;2023-03-24T04:48:21;5.97;;;1.20;;
51949;SDS011;37974;53.218;6.640;2023-03-24T04:50:51;15.73;;;1.33;;
51949;SDS011;37974;53.218;6.640;2023-03-24T04:53:20;8.30;;;1.70;;
51949;SDS011;37974;53.218;6.640;2023-03-24T04:58:15;9.93;;;2.13;;
51949;SDS011;37974;53.218;6.640;2023-03-24T05:00:42;11.75;;;1.52;;
51949;SDS011;37974;53.218;6.640;2023-03-24T05:03:10;14.90;;;1.90;;
51949;SDS011;37974;53.218;6.640;2023-03-24T05:05:39;11.70;;;1.63;;
51949;SDS011;37974;53.218;6.640;2023-03-24T05:08:06;13.88;;;2.28;;
51949;SDS011;37974;53.218;6.640;2023-03-24T05:10:33;8.05;;;1.48;;
51949;SDS011;37974;53.218;6.640;2023-03-24T05:12:59;14.32;;;1.95;;
51949;SDS011;37974;53.218;6.640;2023-03-24T05:15:26;13.55;;;1.98;;
51949;SDS011;37974;53.218;6.640;2023-03-24T05:17:52;11.70;;;2.08;;
51949;SDS011;37974;53.218;6.640;2023-03-24T05:20:18;10.77;;;2.03;;
51949;SDS011;37974;53.218;6.640;2023-03-24T05:22:44;15.27;;;2.22;;
51949;SDS011;37974;53.218;6.640;2023-03-24T05:25:09;11.20;;;2.05;;
51949;SDS011;37974;53.218;6.640;2023-03-24T05:27:35;15.65;;;2.80;;
51949;SDS011;37974;53.218;6.640;2023-03-24T05:30:02;11.63;;;2.10;;
51949;SDS011;37974;53.218;6.640;2023-03-24T05:32:29;19.25;;;2.65;;
51949;SDS011;37974;53.218;6.640;2023-03-24T05:34:55;11.75;;;2.42;;
51949;SDS011;37974;53.218;6.640;2023-03-24T05:37:20;18.20;;;2.75;;
51949;SDS011;37974;53.218;6.640;2023-03-24T05:39:46;15.75;;;2.80;;
51949;SDS011;37974;53.218;6.640;2023-03-24T05:42:15;19.63;;;3.10;;
51949;SDS011;37974;53.218;6.640;2023-03-24T05:44:41;17.35;;;2.80;;
51949;SDS011;37974;53.218;6.640;2023-03-24T05:47:07;18.45;;;2.97;;
51949;SDS011;37974;53.218;6.640;2023-03-24T05:49:37;15.45;;;3.10;;
51949;SDS011;37974;53.218;6.640;2023-03-24T05:52:03;15.55;;;3.15;;
51949;SDS011;37974;53.218;6.640;2023-03-24T05:54:30;15.95;;;2.75;;
51949;SDS011;37974;53.218;6.640;2023-03-24T05:56:58;14.98;;;3.00;;
51949;SDS011;37974;53.218;6.640;2023-03-24T05:59:24;20.88;;;3.33;;
51949;SDS011;37974;53.218;6.640;2023-03-24T06:01:50;17.60;;;3.05;;
51949;SDS011;37974;53.218;6.640;2023-03-24T06:04:17;16.40;;;2.88;;
51949;SDS011;37974;53.218;6.640;2023-03-24T06:06:45;20.77;;;3.13;;
51949;SDS011;37974;53.218;6.640;2023-03-24T06:09:11;17.30;;;3.05;;
51949;SDS011;37974;53.218;6.640;2023-03-24T06:11:39;18.88;;;2.75;;
51949;SDS011;37974;53.218;6.640;2023-03-24T06:14:05;13.05;;;2.35;;
51949;SDS011;37974;53.218;6.640;2023-03-24T06:16:31;18.85;;;3.63;;
51949;SDS011;37974;53.218;6.640;2023-03-24T06:18:58;18.10;;;3.25;;
51949;SDS011;37974;53.218;6.640;2023-03-24T06:21:24;13.57;;;2.55;;
51949;SDS011;37974;53.218;6.640;2023-03-24T06:23:55;15.30;;;2.45;;
51949;SDS011;37974;53.218;6.640;2023-03-24T06:26:22;16.50;;;2.65;;
51949;SDS011;37974;53.218;6.640;2023-03-24T06:28:48;20.13;;;2.85;;
51949;SDS011;37974;53.218;6.640;2023-03-24T06:31:17;16.52;;;3.05;;
51949;SDS011;37974;53.218;6.640;2023-03-24T06:33:45;20.77;;;2.80;;
51949;SDS011;37974;53.218;6.640;2023-03-24T06:36:12;17.15;;;2.88;;
51949;SDS011;37974;53.218;6.640;2023-03-24T06:38:39;18.05;;;2.53;;
51949;SDS011;37974;53.218;6.640;2023-03-24T06:41:06;17.77;;;2.80;;
51949;SDS011;37974;53.218;6.640;2023-03-24T06:43:33;14.75;;;3.22;;
51949;SDS011;37974;53.218;6.640;2023-03-24T06:45:59;23.42;;;3.08;;
51949;SDS011;37974;53.218;6.640;2023-03-24T06:48:25;15.63;;;3.22;;
51949;SDS011;37974;53.218;6.640;2023-03-24T06:50:52;16.15;;;2.92;;
51949;SDS011;37974;53.218;6.640;2023-03-24T06:53:18;17.35;;;3.05;;
51949;SDS011;37974;53.218;6.640;2023-03-24T06:55:46;14.45;;;2.25;;
51949;SDS011;37974;53.218;6.640;2023-03-24T06:58:12;11.88;;;2.50;;
51949;SDS011;37974;53.218;6.640;2023-03-24T07:00:39;18.33;;;2.92;;
51949;SDS011;37974;53.218;6.640;2023-03-24T07:03:06;16.70;;;3.40;;
51949;SDS011;37974;53.218;6.640;2023-03-24T07:05:32;16.20;;;3.05;;
51949;SDS011;37974;53.218;6.640;2023-03-24T07:08:02;20.35;;;3.88;;
51949;SDS011;37974;53.218;6.640;2023-03-24T07:10:28;17.02;;;3.08;;
51949;SDS011;37974;53.218;6.640;2023-03-24T07:12:54;18.90;;;3.28;;
51949;SDS011;37974;53.218;6.640;2023-03-24T07:15:20;20.33;;;4.03;;
51949;SDS011;37974;53.218;6.640;2023-03-24T07:17:45;16.77;;;3.17;;
51949;SDS011;37974;53.218;6.640;2023-03-24T07:20:11;17.48;;;3.40;;
51949;SDS011;37974;53.218;6.640;2023-03-24T07:22:38;18.48;;;3.42;;
51949;SDS011;37974;53.218;6.640;2023-03-24T07:25:04;16.25;;;2.95;;
51949;SDS011;37974;53.218;6.640;2023-03-24T07:27:30;22.88;;;3.95;;
51949;SDS011;37974;53.218;6.640;2023-03-24T07:29:58;21.15;;;3.05;;
51949;SDS011;37974;53.218;6.640;2023-03-24T07:32:24;21.13;;;3.33;;
51949;SDS011;37974;53.218;6.640;2023-03-24T07:34:52;15.95;;;3.17;;
51949;SDS011;37974;53.218;6.640;2023-03-24T07:37:18;17.02;;;2.78;;
51949;SDS011;37974;53.218;6.640;2023-03-24T07:39:44;21.33;;;3.40;;
51949;SDS011;37974;53.218;6.640;2023-03-24T07:42:16;16.80;;;3.15;;
51949;SDS011;37974;53.218;6.640;2023-03-24T07:44:41;24.95;;;3.60;;
51949;SDS011;37974;53.218;6.640;2023-03-24T07:47:07;23.25;;;3.63;;
51949;SDS011;37974;53.218;6.640;2023-03-24T07:49:33;19.23;;;3.45;;
51949;SDS011;37974;53.218;6.640;2023-03-24T07:51:59;16.35;;;3.10;;
51949;SDS011;37974;53.218;6.640;2023-03-24T07:54:30;22.88;;;2.97;;
51949;SDS011;37974;53.218;6.640;2023-03-24T07:56:57;18.85;;;3.55;;
51949;SDS011;37974;53.218;6.640;2023-03-24T07:59:23;25.05;;;4.05;;
51949;SDS011;37974;53.218;6.640;2023-03-24T08:01:50;21.35;;;4.20;;
51949;SDS011;37974;53.218;6.640;2023-03-24T08:04:15;23.95;;;3.70;;
51949;SDS011;37974;53.218;6.640;2023-03-24T08:06:41;22.58;;;3.67;;
51949;SDS011;37974;53.218;6.640;2023-03-24T08:09:07;18.38;;;3.17;;
51949;SDS011;37974;53.218;6.640;2023-03-24T08:11:35;21.08;;;4.00;;
51949;SDS011;37974;53.218;6.640;2023-03-24T08:14:01;29.58;;;4.50;;
51949;SDS011;37974;53.218;6.640;2023-03-24T08:16:27;24.48;;;3.72;;
51949;SDS011;37974;53.218;6.640;2023-03-24T08:18:53;27.40;;;4.13;;
51949;SDS011;37974;53.218;6.640;2023-03-24T08:21:22;20.63;;;3.58;;
51949;SDS011;37974;53.218;6.640;2023-03-24T08:23:49;23.15;;;4.13;;
51949;SDS011;37974;53.218;6.640;2023-03-24T08:26:15;25.15;;;3.78;;
51949;SDS011;37974;53.218;6.640;2023-03-24T08:28:41;27.50;;;4.50;;
51949;SDS011;37974;53.218;6.640;2023-03-24T08:31:07;22.75;;;3.90;;
51949;SDS011;37974;53.218;6.640;2023-03-24T08:33:33;23.25;;;3.22;;
51949;SDS011;37974;53.218;6.640;2023-03-24T08:35:59;20.52;;;3.13;;
51949;SDS011;37974;53.218;6.640;2023-03-24T08:38:25;23.17;;;4.20;;
51949;SDS011;37974;53.218;6.640;2023-03-24T08:40:59;28.50;;;3.95;;
51949;SDS011;37974;53.218;6.640;2023-03-24T08:43:31;30.15;;;5.05;;
51949;SDS011;37974;53.218;6.640;2023-03-24T08:45:59;18.73;;;3.17;;
51949;SDS011;37974;53.218;6.640;2023-03-24T08:48:26;21.50;;;3.08;;
51949;SDS011;37974;53.218;6.640;2023-03-24T08:50:53;21.85;;;4.22;;
51949;SDS011;37974;53.218;6.640;2023-03-24T08:53:20;21.80;;;3.30;;
51949;SDS011;37974;53.218;6.640;2023-03-24T08:55:46;22.73;;;3.30;;
51949;SDS011;37974;53.218;6.640;2023-03-24T08:58:13;24.10;;;3.95;;
51949;SDS011;37974;53.218;6.640;2023-03-24T09:00:40;21.45;;;3.33;;
51949;SDS011;37974;53.218;6.640;2023-03-24T09:03:08;30.55;;;5.15;;
51949;SDS011;37974;53.218;6.640;2023-03-24T09:05:37;20.42;;;3.05;;
51949;SDS011;37974;53.218;6.640;2023-03-24T09:08:03;20.48;;;3.45;;
51949;SDS011;37974;53.218;6.640;2023-03-24T09:10:28;20.23;;;3.38;;
51949;SDS011;37974;53.218;6.640;2023-03-24T09:12:54;27.95;;;4.25;;
51949;SDS011;37974;53.218;6.640;2023-03-24T09:15:20;16.85;;;3.25;;
51949;SDS011;37974;53.218;6.640;2023-03-24T09:17:45;27.40;;;3.85;;
51949;SDS011;37974;53.218;6.640;2023-03-24T09:20:12;28.13;;;4.25;;
51949;SDS011;37974;53.218;6.640;2023-03-24T09:22:41;25.30;;;4.07;;
51949;SDS011;37974;53.218;6.640;2023-03-24T09:25:09;22.63;;;3.88;;
51949;SDS011;37974;53.218;6.640;2023-03-24T09:27:36;22.60;;;4.10;;
51949;SDS011;37974;53.218;6.640;2023-03-24T09:30:02;26.05;;;3.95;;
51949;SDS011;37974;53.218;6.640;2023-03-24T09:32:28;23.10;;;3.88;;
51949;SDS011;37974;53.218;6.640;2023-03-24T09:34:54;19.77;;;3.72;;
51949;SDS011;37974;53.218;6.640;2023-03-24T09:37:20;18.85;;;3.50;;
51949;SDS011;37974;53.218;6.640;2023-03-24T09:39:46;18.75;;;3.22;;
51949;SDS011;37974;53.218;6.640;2023-03-24T09:42:20;21.58;;;3.13;;
51949;SDS011;37974;53.218;6.640;2023-03-24T09:44:51;26.75;;;4.05;;
51949;SDS011;37974;53.218;6.640;2023-03-24T09:50:15;22.38;;;3.47;;
51949;SDS011;37974;53.218;6.640;2023-03-24T09:52:43;20.15;;;3.55;;
51949;SDS011;37974;53.218;6.640;2023-03-24T09:55:15;19.60;;;4.35;;
51949;SDS011;37974;53.218;6.640;2023-03-24T09:57:45;19.67;;;3.63;;
51949;SDS011;37974;53.218;6.640;2023-03-24T10:00:15;19.52;;;3.50;;
51949;SDS011;37974;53.218;6.640;2023-03-24T10:02:46;19.05;;;4.15;;
51949;SDS011;37974;53.218;6.640;2023-03-24T10:05:14;20.75;;;4.30;;
51949;SDS011;37974;53.218;6.640;2023-03-24T10:10:19;19.67;;;3.88;;
51949;SDS011;37974;53.218;6.640;2023-03-24T10:12:53;21.27;;;3.63;;
51949;SDS011;37974;53.218;6.640;2023-03-24T10:15:25;18.52;;;3.80;;
51949;SDS011;37974;53.218;6.640;2023-03-24T10:18:00;21.67;;;3.42;;
51949;SDS011;37974;53.218;6.640;2023-03-24T10:22:58;20.13;;;3.35;;
51949;SDS011;37974;53.218;6.640;2023-03-24T10:28:17;23.42;;;3.50;;
51949;SDS011;37974;53.218;6.640;2023-03-24T10:30:45;21.25;;;3.72;;
51949;SDS011;37974;53.218;6.640;2023-03-24T10:33:13;20.83;;;3.50;;
51949;SDS011;37974;53.218;6.640;2023-03-24T10:38:12;19.50;;;3.25;;
51949;SDS011;37974;53.218;6.640;2023-03-24T10:40:42;17.02;;;3.30;;
51949;SDS011;37974;53.218;6.640;2023-03-24T10:43:09;26.67;;;3.78;;
51949;SDS011;37974;53.218;6.640;2023-03-24T10:45:37;21.17;;;3.20;;
51949;SDS011;37974;53.218;6.640;2023-03-24T10:48:05;20.98;;;3.42;;
51949;SDS011;37974;53.218;6.640;2023-03-24T10:50:33;21.92;;;3.88;;
51949;SDS011;37974;53.218;6.640;2023-03-24T10:53:00;19.25;;;3.28;;
51949;SDS011;37974;53.218;6.640;2023-03-24T10:55:35;19.98;;;3.10;;
51949;SDS011;37974;53.218;6.640;2023-03-24T10:58:03;17.15;;;2.70;;
51949;SDS011;37974;53.218;6.640;2023-03-24T11:00:37;16.20;;;3.10;;
51949;SDS011;37974;53.218;6.640;2023-03-24T11:03:04;16.33;;;2.92;;
51949;SDS011;37974;53.218;6.640;2023-03-24T11:05:36;18.02;;;3.08;;
51949;SDS011;37974;53.218;6.640;2023-03-24T11:10:41;25.27;;;3.90;;
51949;SDS011;37974;53.218;6.640;2023-03-24T11:13:29;17.58;;;3.25;;
51949;SDS011;37974;53.218;6.640;2023-03-24T11:16:03;19.98;;;3.20;;
51949;SDS011;37974;53.218;6.640;2023-03-24T11:18:36;19.25;;;2.42;;
51949;SDS011;37974;53.218;6.640;2023-03-24T11:21:02;18.70;;;3.05;;
51949;SDS011;37974;53.218;6.640;2023-03-24T11:23:32;19.25;;;2.80;;
51949;SDS011;37974;53.218;6.640;2023-03-24T11:26:15;18.20;;;2.80;;
51949;SDS011;37974;53.218;6.640;2023-03-24T11:28:45;14.32;;;2.85;;
51949;SDS011;37974;53.218;6.640;2023-03-24T11:31:20;15.52;;;2.85;;
51949;SDS011;37974;53.218;6.640;2023-03-24T11:33:54;19.90;;;3.53;;
51949;SDS011;37974;53.218;6.640;2023-03-24T11:38:59;20.02;;;3.38;;
51949;SDS011;37974;53.218;6.640;2023-03-24T11:41:36;22.45;;;4.05;;
51949;SDS011;37974;53.218;6.640;2023-03-24T11:44:21;14.57;;;2.45;;
51949;SDS011;37974;53.218;6.640;2023-03-24T11:46:50;19.55;;;2.97;;
51949;SDS011;37974;53.218;6.640;2023-03-24T11:49:20;18.63;;;3.05;;
51949;SDS011;37974;53.218;6.640;2023-03-24T11:51:51;25.75;;;4.60;;
51949;SDS011;37974;53.218;6.640;2023-03-24T11:54:20;12.40;;;2.67;;
51949;SDS011;37974;53.218;6.640;2023-03-24T11:59:26;18.23;;;3.05;;
51949;SDS011;37974;53.218;6.640;2023-03-24T12:02:00;19.83;;;3.00;;
51949;SDS011;37974;53.218;6.640;2023-03-24T12:15:19;17.17;;;3.00;;
51949;SDS011;37974;53.218;6.640;2023-03-24T12:20:31;16.55;;;2.80;;
51949;SDS011;37974;53.218;6.640;2023-03-24T12:23:24;15.38;;;2.65;;
51949;SDS011;37974;53.218;6.640;2023-03-24T12:26:12;13.30;;;2.80;;
51949;SDS011;37974;53.218;6.640;2023-03-24T12:37:24;19.38;;;2.65;;
51949;SDS011;37974;53.218;6.640;2023-03-24T12:40:03;17.70;;;3.53;;
51949;SDS011;37974;53.218;6.640;2023-03-24T12:42:38;23.35;;;2.85;;
51949;SDS011;37974;53.218;6.640;2023-03-24T12:45:12;14.93;;;2.70;;
51949;SDS011;37974;53.218;6.640;2023-03-24T12:47:57;17.27;;;2.78;;
51949;SDS011;37974;53.218;6.640;2023-03-24T12:56:17;20.13;;;2.92;;
51949;SDS011;37974;53.218;6.640;2023-03-24T12:58:49;17.83;;;2.58;;
51949;SDS011;37974;53.218;6.640;2023-03-24T13:01:25;15.85;;;2.25;;
51949;SDS011;37974;53.218;6.640;2023-03-24T13:07:09;19.35;;;2.83;;
51949;SDS011;37974;53.218;6.640;2023-03-24T13:12:15;14.20;;;2.50;;
51949;SDS011;37974;53.218;6.640;2023-03-24T13:17:38;12.68;;;2.58;;
51949;SDS011;37974;53.218;6.640;2023-03-24T13:20:19;19.00;;;3.17;;
51949;SDS011;37974;53.218;6.640;2023-03-24T13:22:50;15.73;;;2.33;;
51949;SDS011;37974;53.218;6.640;2023-03-24T13:25:19;14.60;;;2.47;;
51949;SDS011;37974;53.218;6.640;2023-03-24T13:27:54;13.38;;;3.03;;
51949;SDS011;37974;53.218;6.640;2023-03-24T13:30:33;9.20;;;1.95;;
51949;SDS011;37974;53.218;6.640;2023-03-24T13:33:04;17.15;;;2.13;;
51949;SDS011;37974;53.218;6.640;2023-03-24T13:38:40;12.52;;;2.75;;
51949;SDS011;37974;53.218;6.640;2023-03-24T13:41:12;16.20;;;2.63;;
51949;SDS011;37974;53.218;6.640;2023-03-24T13:43:47;17.08;;;2.20;;
51949;SDS011;37974;53.218;6.640;2023-03-24T13:46:16;15.50;;;2.35;;
51949;SDS011;37974;53.218;6.640;2023-03-24T13:48:43;13.35;;;2.30;;
51949;SDS011;37974;53.218;6.640;2023-03-24T13:51:17;11.63;;;2.05;;
51949;SDS011;37974;53.218;6.640;2023-03-24T13:53:50;15.23;;;2.53;;
51949;SDS011;37974;53.218;6.640;2023-03-24T13:56:21;16.65;;;3.15;;
51949;SDS011;37974;53.218;6.640;2023-03-24T14:04:27;14.13;;;2.55;;
51949;SDS011;37974;53.218;6.640;2023-03-24T14:06:47;12.77;;;2.75;;
51949;SDS011;37974;53.218;6.640;2023-03-24T14:09:15;17.70;;;2.70;;
51949;SDS011;37974;53.218;6.640;2023-03-24T14:11:49;17.60;;;2.92;;
51949;SDS011;37974;53.218;6.640;2023-03-24T14:14:16;13.85;;;2.50;;
51949;SDS011;37974;53.218;6.640;2023-03-24T14:21:56;20.67;;;3.20;;
51949;SDS011;37974;53.218;6.640;2023-03-24T14:24:27;17.75;;;2.72;;
51949;SDS011;37974;53.218;6.640;2023-03-24T14:26:55;15.45;;;2.60;;
51949;SDS011;37974;53.218;6.640;2023-03-24T14:29:32;15.48;;;2.60;;
51949;SDS011;37974;53.218;6.640;2023-03-24T14:32:13;24.77;;;2.97;;
51949;SDS011;37974;53.218;6.640;2023-03-24T14:34:49;15.70;;;2.63;;
51949;SDS011;37974;53.218;6.640;2023-03-24T14:37:18;20.67;;;2.78;;
51949;SDS011;37974;53.218;6.640;2023-03-24T14:39:46;16.00;;;2.67;;
51949;SDS011;37974;53.218;6.640;2023-03-24T14:45:00;16.80;;;2.47;;
51949;SDS011;37974;53.218;6.640;2023-03-24T14:47:30;15.88;;;2.67;;
51949;SDS011;37974;53.218;6.640;2023-03-24T14:49:59;21.98;;;2.60;;
51949;SDS011;37974;53.218;6.640;2023-03-24T14:52:35;13.43;;;2.20;;
51949;SDS011;37974;53.218;6.640;2023-03-24T14:55:08;14.07;;;2.08;;
51949;SDS011;37974;53.218;6.640;2023-03-24T14:57:41;15.23;;;2.53;;
51949;SDS011;37974;53.218;6.640;2023-03-24T15:02:46;16.90;;;2.40;;
51949;SDS011;37974;53.218;6.640;2023-03-24T15:05:16;16.08;;;2.25;;
51949;SDS011;37974;53.218;6.640;2023-03-24T15:08:13;15.50;;;2.45;;
51949;SDS011;37974;53.218;6.640;2023-03-24T15:13:22;13.88;;;2.30;;
51949;SDS011;37974;53.218;6.640;2023-03-24T15:15:53;13.30;;;2.20;;
51949;SDS011;37974;53.218;6.640;2023-03-24T15:18:19;11.65;;;2.20;;
51949;SDS011;37974;53.218;6.640;2023-03-24T15:20:47;11.98;;;1.85;;
51949;SDS011;37974;53.218;6.640;2023-03-24T15:23:22;16.83;;;1.83;;
51949;SDS011;37974;53.218;6.640;2023-03-24T15:25:50;13.32;;;1.88;;
51949;SDS011;37974;53.218;6.640;2023-03-24T15:28:20;12.18;;;2.22;;
51949;SDS011;37974;53.218;6.640;2023-03-24T15:30:50;10.18;;;2.13;;
51949;SDS011;37974;53.218;6.640;2023-03-24T15:33:17;13.27;;;2.38;;
51949;SDS011;37974;53.218;6.640;2023-03-24T15:35:43;11.60;;;2.10;;
51949;SDS011;37974;53.218;6.640;2023-03-24T15:38:17;13.65;;;2.22;;
51949;SDS011;37974;53.218;6.640;2023-03-24T15:40:55;12.55;;;1.98;;
51949;SDS011;37974;53.218;6.640;2023-03-24T15:43:23;10.13;;;1.60;;
51949;SDS011;37974;53.218;6.640;2023-03-24T15:45:50;13.85;;;2.17;;
51949;SDS011;37974;53.218;6.640;2023-03-24T15:48:19;14.57;;;2.38;;
51949;SDS011;37974;53.218;6.640;2023-03-24T15:50:53;12.75;;;2.33;;
51949;SDS011;37974;53.218;6.640;2023-03-24T15:53:29;11.52;;;2.45;;
51949;SDS011;37974;53.218;6.640;2023-03-24T15:56:14;15.35;;;2.15;;
51949;SDS011;37974;53.218;6.640;2023-03-24T15:58:44;19.20;;;2.13;;
51949;SDS011;37974;53.218;6.640;2023-03-24T16:01:12;13.30;;;2.45;;
51949;SDS011;37974;53.218;6.640;2023-03-24T16:03:41;13.68;;;2.10;;
51949;SDS011;37974;53.218;6.640;2023-03-24T16:06:13;16.02;;;2.53;;
51949;SDS011;37974;53.218;6.640;2023-03-24T16:08:40;14.15;;;2.28;;
51949;SDS011;37974;53.218;6.640;2023-03-24T16:11:08;17.20;;;2.45;;
51949;SDS011;37974;53.218;6.640;2023-03-24T16:13:36;15.30;;;2.40;;
51949;SDS011;37974;53.218;6.640;2023-03-24T16:16:15;14.95;;;2.00;;
51949;SDS011;37974;53.218;6.640;2023-03-24T16:18:49;12.35;;;2.63;;
51949;SDS011;37974;53.218;6.640;2023-03-24T16:21:20;8.70;;;1.48;;
51949;SDS011;37974;53.218;6.640;2023-03-24T16:23:48;12.40;;;2.45;;
51949;SDS011;37974;53.218;6.640;2023-03-24T16:26:17;11.63;;;1.67;;
51949;SDS011;37974;53.218;6.640;2023-03-24T16:28:44;11.30;;;1.58;;
51949;SDS011;37974;53.218;6.640;2023-03-24T16:33:50;11.75;;;2.22;;
51949;SDS011;37974;53.218;6.640;2023-03-24T16:36:16;10.27;;;1.45;;
51949;SDS011;37974;53.218;6.640;2023-03-24T16:38:43;12.18;;;2.20;;
51949;SDS011;37974;53.218;6.640;2023-03-24T16:41:10;11.50;;;1.83;;
51949;SDS011;37974;53.218;6.640;2023-03-24T16:43:38;13.63;;;2.05;;
51949;SDS011;37974;53.218;6.640;2023-03-24T16:46:09;14.32;;;2.08;;
51949;SDS011;37974;53.218;6.640;2023-03-24T16:48:37;9.98;;;1.48;;
51949;SDS011;37974;53.218;6.640;2023-03-24T16:51:03;8.95;;;1.30;;
51949;SDS011;37974;53.218;6.640;2023-03-24T16:53:29;13.40;;;1.73;;
51949;SDS011;37974;53.218;6.640;2023-03-24T16:55:55;8.27;;;1.58;;
51949;SDS011;37974;53.218;6.640;2023-03-24T16:58:20;8.63;;;1.60;;